Time;durP1;ratioP1;P1;durP2;ratioP2;P2;SDS_P1;SDS_P2;PMS_P1;PMS_P2;Temp;Humidity;BMP_temperature;BMP_pressure;BME280_temperature;BME280_humidity;BME280_pressure;Samples;Min_cycle;Max_cycle;Signal;HPM_P1;HPM_P2
2023/08/10 00:02:24;;;;;;;;;;;21.60;54.20;;;;;;4954812;28;81967;-42
2023/08/10 00:04:49;;;;;;;;;;;21.50;54.30;;;;;;4958605;28;81665;-42
2023/08/10 00:07:15;;;;;;;;;;;21.50;54.30;;;;;;4953788;28;83394;-43
2023/08/10 00:09:40;;;;;;;;;;;21.50;54.30;;;;;;4950515;28;82577;-43
2023/08/10 00:12:06;;;;;;;;;;;21.50;54.90;;;;;;4955337;28;83208;-43
2023/08/10 00:14:32;;;;;;;;;;;21.50;54.30;;;;;;4952511;28;82960;-42
2023/08/10 00:16:58;;;;;;;;;;;21.50;54.30;;;;;;4957025;28;82202;-42
2023/08/10 00:19:23;;;;;;;;;;;21.50;54.30;;;;;;4959615;28;82777;-44
2023/08/10 00:21:49;;;;;;;;;;;21.50;54.30;;;;;;4959090;28;82209;-44
2023/08/10 00:24:14;;;;;;;;;;;21.50;54.30;;;;;;4957749;28;82560;-44
2023/08/10 00:26:40;;;;;;;;;;;21.50;54.30;;;;;;4959984;28;83222;-42
2023/08/10 00:29:05;;;;;;;;;;;21.50;54.30;;;;;;4956061;28;81627;-44
2023/08/10 00:31:31;;;;;;;;;;;21.50;54.40;;;;;;4959610;28;82106;-41
2023/08/10 00:33:56;;;;;;;;;;;21.40;54.40;;;;;;4957152;28;82925;-41
2023/08/10 00:36:22;;;;;;;;;;;21.50;54.40;;;;;;4961882;28;83054;-44
2023/08/10 00:38:47;;;;;;;;;;;21.50;54.40;;;;;;4958083;28;82569;-45
2023/08/10 00:41:13;;;;;;;;;;;21.40;54.40;;;;;;4957922;28;81980;-41
2023/08/10 00:43:42;;;;;;;;;;;21.50;54.40;;;;;;4953134;28;82314;-43
2023/08/10 00:46:09;;;;;;;;;;;21.40;54.40;;;;;;4958467;28;82819;-44
2023/08/10 00:48:35;;;;;;;;;;;21.40;54.40;;;;;;4959229;28;81814;-44
2023/08/10 00:51:00;;;;;;;;;;;21.40;54.50;;;;;;4957054;28;82648;-41
2023/08/10 00:53:26;;;;;;;;;;;21.40;54.50;;;;;;4959897;28;82446;-44
2023/08/10 00:55:53;;;;;;;;;;;21.40;54.50;;;;;;4958345;28;82363;-43
2023/08/10 00:58:19;;;;;;;;;;;21.40;54.50;;;;;;4958594;28;82327;-47
2023/08/10 01:00:45;;;;;;;;;;;21.40;55.20;;;;;;4955420;28;83956;-41
2023/08/10 01:03:11;;;;;;;;;;;21.40;54.50;;;;;;4956140;28;83430;-43
2023/08/10 01:05:43;;;;;;;;;;;21.40;54.50;;;;;;4957435;28;82953;-44
2023/08/10 01:08:12;;;;;;;;;;;21.30;54.50;;;;;;4953670;28;82034;-45
2023/08/10 01:10:37;;;;;;;;;;;21.40;54.60;;;;;;4957808;28;82390;-42
2023/08/10 01:13:11;;;;;;;;;;;21.30;54.70;;;;;;4959486;28;83574;-43
2023/08/10 01:15:48;;;;;;;;;;;21.30;54.60;;;;;;4950443;28;81992;-44
2023/08/10 01:18:15;;;;;;;;;;;21.30;54.60;;;;;;4959449;28;82418;-41
2023/08/10 01:20:41;;;;;;;;;;;21.30;54.70;;;;;;4960774;28;82926;-41
2023/08/10 01:23:13;;;;;;;;;;;21.30;54.70;;;;;;4958882;28;82347;-42
2023/08/10 01:25:41;;;;;;;;;;;21.30;54.70;;;;;;4952590;28;83914;-45
2023/08/10 01:28:07;;;;;;;;;;;21.30;54.70;;;;;;4957312;28;82074;-45
2023/08/10 01:30:32;;;;;;;;;;;21.20;54.70;;;;;;4956351;28;82748;-42
2023/08/10 01:32:58;;;;;;;;;;;21.20;54.70;;;;;;4951018;28;83132;-45
2023/08/10 01:35:24;;;;;;;;;;;21.20;54.70;;;;;;4958271;28;82595;-44
2023/08/10 01:37:50;;;;;;;;;;;21.20;54.80;;;;;;4958393;28;82267;-44
2023/08/10 01:40:16;;;;;;;;;;;21.20;54.70;;;;;;4954462;28;83641;-42
2023/08/10 01:42:42;;;;;;;;;;;21.20;54.70;;;;;;4961784;28;81244;-42
2023/08/10 01:45:08;;;;;;;;;;;21.20;54.70;;;;;;4953229;28;83372;-41
2023/08/10 01:47:37;;;;;;;;;;;21.20;54.70;;;;;;4956622;28;82060;-44
2023/08/10 01:50:04;;;;;;;;;;;21.20;54.80;;;;;;4952862;28;82983;-42
2023/08/10 01:52:45;;;;;;;;;;;21.20;54.70;;;;;;4957110;28;82941;-42
2023/08/10 01:55:12;;;;;;;;;;;21.20;54.70;;;;;;4954166;28;82128;-42
2023/08/10 01:57:37;;;;;;;;;;;21.20;54.70;;;;;;4956605;28;83712;-45
2023/08/10 02:00:06;;;;;;;;;;;21.20;54.80;;;;;;4955264;28;84362;-46
2023/08/10 02:02:32;;;;;;;;;;;21.10;54.80;;;;;;4955517;28;82136;-42
2023/08/10 02:04:58;;;;;;;;;;;21.10;54.70;;;;;;4960482;28;82030;-41
2023/08/10 02:07:24;;;;;;;;;;;21.10;54.60;;;;;;4956324;28;81445;-45
2023/08/10 02:09:50;;;;;;;;;;;21.10;54.70;;;;;;4956805;28;82135;-42
2023/08/10 02:12:16;;;;;;;;;;;21.10;54.80;;;;;;4957202;28;82950;-41
2023/08/10 02:14:41;;;;;;;;;;;21.10;54.80;;;;;;4951938;28;83602;-44
2023/08/10 02:17:07;;;;;;;;;;;21.10;54.80;;;;;;4955469;28;84873;-42
2023/08/10 02:19:32;;;;;;;;;;;21.00;54.80;;;;;;4957573;28;83197;-44
2023/08/10 02:21:58;;;;;;;;;;;21.10;54.80;;;;;;4957411;28;82349;-42
2023/08/10 02:24:23;;;;;;;;;;;21.10;54.80;;;;;;4955615;28;82550;-46
2023/08/10 02:26:49;;;;;;;;;;;21.00;54.90;;;;;;4960826;28;82970;-43
2023/08/10 02:29:14;;;;;;;;;;;21.00;54.90;;;;;;4954217;28;82562;-44
2023/08/10 02:31:40;;;;;;;;;;;21.00;54.90;;;;;;4954476;28;82686;-42
2023/08/10 02:34:06;;;;;;;;;;;21.00;54.90;;;;;;4955140;28;81901;-43
2023/08/10 02:36:32;;;;;;;;;;;21.00;54.90;;;;;;4957734;28;82729;-43
2023/08/10 02:38:57;;;;;;;;;;;21.00;54.90;;;;;;4956281;28;83961;-43
2023/08/10 02:41:23;;;;;;;;;;;21.00;55.00;;;;;;4954876;28;82132;-45
2023/08/10 02:43:48;;;;;;;;;;;20.90;54.90;;;;;;4958201;28;82442;-41
2023/08/10 02:46:14;;;;;;;;;;;20.90;55.00;;;;;;4951363;28;83200;-42
2023/08/10 02:48:39;;;;;;;;;;;21.00;55.20;;;;;;4957200;28;82034;-41
2023/08/10 02:51:05;;;;;;;;;;;20.90;55.00;;;;;;4957863;28;83060;-40
2023/08/10 02:53:30;;;;;;;;;;;20.90;55.10;;;;;;4955512;28;82116;-42
2023/08/10 02:55:56;;;;;;;;;;;20.90;55.10;;;;;;4957313;28;82592;-43
2023/08/10 02:58:22;;;;;;;;;;;20.90;55.10;;;;;;4957229;28;83158;-44
2023/08/10 03:00:48;;;;;;;;;;;20.90;55.10;;;;;;4949852;28;82176;-44
2023/08/10 03:03:14;;;;;;;;;;;20.90;55.10;;;;;;4956584;28;83055;-43
2023/08/10 03:05:40;;;;;;;;;;;20.90;55.10;;;;;;4952865;28;82089;-41
2023/08/10 03:08:06;;;;;;;;;;;20.90;55.20;;;;;;4957580;28;82735;-41
2023/08/10 03:10:31;;;;;;;;;;;20.90;55.20;;;;;;4951251;28;82427;-43
2023/08/10 03:12:57;;;;;;;;;;;20.90;55.40;;;;;;4956901;28;82618;-42
2023/08/10 03:15:22;;;;;;;;;;;20.80;55.40;;;;;;4951858;28;82345;-44
2023/08/10 03:17:48;;;;;;;;;;;20.80;55.40;;;;;;4954466;28;82994;-41
2023/08/10 03:20:16;;;;;;;;;;;20.80;55.40;;;;;;4957826;28;81342;-44
2023/08/10 03:22:42;;;;;;;;;;;20.80;55.40;;;;;;4956556;28;81961;-40
2023/08/10 03:25:08;;;;;;;;;;;20.80;55.40;;;;;;4954511;28;83138;-41
2023/08/10 03:27:34;;;;;;;;;;;20.80;55.40;;;;;;4956751;28;82902;-43
2023/08/10 03:30:00;;;;;;;;;;;20.80;55.60;;;;;;4957835;28;82928;-42
2023/08/10 03:32:25;;;;;;;;;;;20.80;55.50;;;;;;4954342;28;82042;-40
2023/08/10 03:34:52;;;;;;;;;;;20.80;55.60;;;;;;4957546;28;82600;-43
2023/08/10 03:37:18;;;;;;;;;;;20.70;56.20;;;;;;4954632;28;83352;-40
2023/08/10 03:39:43;;;;;;;;;;;20.70;55.50;;;;;;4955559;28;82107;-41
2023/08/10 03:42:09;;;;;;;;;;;20.70;55.50;;;;;;4957479;28;82604;-42
2023/08/10 03:44:34;;;;;;;;;;;20.80;55.60;;;;;;4950850;28;82292;-43
2023/08/10 03:47:00;;;;;;;;;;;20.70;55.70;;;;;;4955126;28;82034;-44
2023/08/10 03:49:25;;;;;;;;;;;20.70;55.50;;;;;;4955656;28;82134;-44
2023/08/10 03:51:51;;;;;;;;;;;20.70;55.50;;;;;;4960643;28;83950;-42
2023/08/10 03:54:17;;;;;;;;;;;20.70;55.60;;;;;;4958477;28;83223;-42
2023/08/10 03:56:43;;;;;;;;;;;20.70;55.60;;;;;;4959310;28;82844;-42
2023/08/10 03:59:08;;;;;;;;;;;20.70;55.60;;;;;;4960621;28;83071;-43
2023/08/10 04:01:34;;;;;;;;;;;20.70;55.70;;;;;;4957291;28;82357;-41
2023/08/10 04:04:00;;;;;;;;;;;20.70;55.60;;;;;;4958483;28;82215;-42
2023/08/10 04:06:25;;;;;;;;;;;20.70;55.70;;;;;;4958715;28;82064;-43
2023/08/10 04:08:51;;;;;;;;;;;20.70;55.70;;;;;;4961180;28;82644;-43
2023/08/10 04:11:16;;;;;;;;;;;20.60;55.60;;;;;;4957614;28;84007;-44
2023/08/10 04:13:42;;;;;;;;;;;20.60;55.70;;;;;;4962237;28;82070;-41
2023/08/10 04:16:07;;;;;;;;;;;20.60;55.70;;;;;;4955329;28;85218;-42
2023/08/10 04:18:33;;;;;;;;;;;20.60;55.70;;;;;;4955894;28;82082;-40
2023/08/10 04:21:00;;;;;;;;;;;20.60;55.70;;;;;;4959954;28;82492;-42
2023/08/10 04:23:25;;;;;;;;;;;20.60;55.80;;;;;;4958970;28;82098;-43
2023/08/10 04:25:51;;;;;;;;;;;20.60;55.80;;;;;;4957641;28;82067;-41
2023/08/10 04:28:16;;;;;;;;;;;20.60;55.90;;;;;;4960332;28;82597;-41
2023/08/10 04:30:42;;;;;;;;;;;20.60;55.90;;;;;;4957710;28;82611;-42
2023/08/10 04:33:09;;;;;;;;;;;20.60;55.90;;;;;;4959598;28;81732;-43
2023/08/10 04:35:34;;;;;;;;;;;20.60;55.90;;;;;;4959797;28;82483;-42
2023/08/10 04:38:00;;;;;;;;;;;20.60;55.90;;;;;;4959602;28;82156;-41
2023/08/10 04:40:25;;;;;;;;;;;20.50;55.90;;;;;;4954673;28;83777;-45
2023/08/10 04:42:51;;;;;;;;;;;20.50;55.90;;;;;;4952878;28;82902;-41
2023/08/10 04:45:17;;;;;;;;;;;20.50;56.00;;;;;;4949872;28;82372;-43
2023/08/10 04:47:42;;;;;;;;;;;20.50;56.00;;;;;;4952050;28;83061;-42
2023/08/10 04:50:08;;;;;;;;;;;20.50;56.10;;;;;;4958824;28;82737;-45
2023/08/10 04:52:34;;;;;;;;;;;20.50;56.10;;;;;;4954588;28;82928;-42
2023/08/10 04:54:59;;;;;;;;;;;20.50;56.10;;;;;;4950043;28;82437;-42
2023/08/10 04:57:25;;;;;;;;;;;20.50;56.10;;;;;;4957193;28;81309;-45
2023/08/10 04:59:50;;;;;;;;;;;20.50;56.10;;;;;;4959287;28;81959;-42
2023/08/10 05:02:16;;;;;;;;;;;20.40;56.10;;;;;;4949847;28;84498;-44
2023/08/10 05:04:42;;;;;;;;;;;20.40;56.10;;;;;;4948822;28;83354;-43
2023/08/10 05:07:07;;;;;;;;;;;20.40;56.10;;;;;;4958209;28;83553;-46
2023/08/10 05:09:33;;;;;;;;;;;20.40;56.20;;;;;;4956636;28;83122;-41
2023/08/10 05:11:58;;;;;;;;;;;20.40;56.10;;;;;;4951127;28;83290;-44
2023/08/10 05:14:24;;;;;;;;;;;20.40;56.30;;;;;;4946123;28;82420;-42
2023/08/10 05:16:49;;;;;;;;;;;20.40;56.40;;;;;;4957633;28;83189;-42
2023/08/10 05:19:15;;;;;;;;;;;20.40;56.30;;;;;;4953568;28;82574;-42
2023/08/10 05:21:40;;;;;;;;;;;20.40;56.30;;;;;;4948073;28;82344;-44
2023/08/10 05:24:06;;;;;;;;;;;20.40;56.30;;;;;;4950977;28;82390;-43
2023/08/10 05:26:32;;;;;;;;;;;20.40;56.30;;;;;;4957140;28;82212;-43
2023/08/10 05:28:57;;;;;;;;;;;20.40;56.30;;;;;;4954285;28;83887;-42
2023/08/10 05:31:23;;;;;;;;;;;20.40;56.30;;;;;;4946908;28;82175;-42
2023/08/10 05:33:48;;;;;;;;;;;20.30;56.40;;;;;;4952284;28;82509;-44
2023/08/10 05:36:14;;;;;;;;;;;20.30;56.40;;;;;;4956336;28;82961;-43
2023/08/10 05:38:40;;;;;;;;;;;20.30;56.40;;;;;;4956338;28;82172;-45
2023/08/10 05:41:05;;;;;;;;;;;20.30;56.40;;;;;;4938152;28;83407;-43
2023/08/10 05:43:31;;;;;;;;;;;20.30;56.50;;;;;;4954922;28;82083;-42
2023/08/10 05:45:56;;;;;;;;;;;20.30;56.50;;;;;;4954614;28;84722;-45
2023/08/10 05:48:22;;;;;;;;;;;20.30;56.40;;;;;;4949664;28;84497;-44
2023/08/10 05:50:48;;;;;;;;;;;20.30;56.50;;;;;;4945016;28;83877;-44
2023/08/10 05:53:14;;;;;;;;;;;20.20;56.50;;;;;;4948677;28;83994;-44
2023/08/10 05:55:40;;;;;;;;;;;20.30;56.50;;;;;;4955707;28;84323;-44
2023/08/10 05:58:05;;;;;;;;;;;20.20;56.50;;;;;;4956306;28;82003;-41
2023/08/10 06:00:31;;;;;;;;;;;20.20;56.70;;;;;;4955004;28;82427;-42
2023/08/10 06:02:56;;;;;;;;;;;20.20;56.50;;;;;;4954376;28;82172;-41
2023/08/10 06:05:22;;;;;;;;;;;20.20;56.50;;;;;;4959431;28;82419;-42
2023/08/10 06:07:47;;;;;;;;;;;20.20;56.40;;;;;;4947254;28;82841;-43
2023/08/10 06:10:14;;;;;;;;;;;20.20;56.50;;;;;;4948282;28;81491;-41
2023/08/10 06:12:41;;;;;;;;;;;20.20;56.60;;;;;;4956233;28;83446;-43
2023/08/10 06:15:07;;;;;;;;;;;20.20;56.60;;;;;;4954750;28;84275;-42
2023/08/10 06:17:33;;;;;;;;;;;20.20;56.60;;;;;;4947888;28;83211;-42
2023/08/10 06:19:58;;;;;;;;;;;20.20;56.50;;;;;;4947568;28;83605;-45
2023/08/10 06:22:24;;;;;;;;;;;20.20;56.60;;;;;;4955937;28;83423;-44
2023/08/10 06:24:50;;;;;;;;;;;20.20;56.60;;;;;;4956755;28;82459;-44
2023/08/10 06:27:15;;;;;;;;;;;20.20;56.60;;;;;;4957681;28;83190;-42
2023/08/10 06:29:41;;;;;;;;;;;20.20;56.70;;;;;;4949318;28;82633;-41
2023/08/10 06:32:07;;;;;;;;;;;20.20;56.50;;;;;;4950734;28;83934;-42
2023/08/10 06:34:33;;;;;;;;;;;20.20;56.70;;;;;;4956572;28;82226;-45
2023/08/10 06:36:59;;;;;;;;;;;20.10;57.20;;;;;;4950206;28;82884;-43
2023/08/10 06:39:27;;;;;;;;;;;20.20;56.70;;;;;;4950046;28;82407;-43
2023/08/10 06:41:55;;;;;;;;;;;20.10;56.60;;;;;;4956241;28;83743;-43
2023/08/10 06:44:21;;;;;;;;;;;20.20;56.80;;;;;;4958670;28;82043;-44
2023/08/10 06:46:46;;;;;;;;;;;20.20;56.70;;;;;;4943359;28;82915;-42
2023/08/10 06:49:12;;;;;;;;;;;20.20;56.70;;;;;;4948887;28;82090;-45
2023/08/10 06:51:38;;;;;;;;;;;20.10;56.70;;;;;;4955907;28;82367;-44
2023/08/10 06:54:03;;;;;;;;;;;20.20;56.80;;;;;;4949661;28;82838;-47
2023/08/10 06:56:29;;;;;;;;;;;20.20;56.80;;;;;;4945029;28;83691;-45
2023/08/10 06:58:55;;;;;;;;;;;20.10;56.80;;;;;;4956139;28;82433;-44
2023/08/10 07:01:20;;;;;;;;;;;20.20;56.80;;;;;;4955438;28;81917;-46
2023/08/10 07:03:46;;;;;;;;;;;20.10;56.80;;;;;;4957157;28;82768;-42
2023/08/10 07:06:12;;;;;;;;;;;20.10;56.80;;;;;;4947050;28;85807;-47
2023/08/10 07:08:38;;;;;;;;;;;20.10;56.80;;;;;;4949440;28;81977;-42
2023/08/10 07:11:03;;;;;;;;;;;20.10;56.80;;;;;;4957614;28;82014;-44
2023/08/10 07:13:29;;;;;;;;;;;20.10;56.90;;;;;;4946292;28;83000;-42
2023/08/10 07:15:55;;;;;;;;;;;20.10;56.90;;;;;;4949626;28;83448;-45
2023/08/10 07:18:20;;;;;;;;;;;20.10;56.80;;;;;;4952676;28;84250;-45
2023/08/10 07:20:46;;;;;;;;;;;20.10;57.00;;;;;;4951374;28;82958;-46
2023/08/10 07:23:14;;;;;;;;;;;20.10;56.90;;;;;;4956641;28;81321;-44
2023/08/10 07:25:39;;;;;;;;;;;20.10;57.00;;;;;;4952064;28;83614;-43
2023/08/10 07:28:05;;;;;;;;;;;20.10;57.10;;;;;;4953428;28;81960;-43
2023/08/10 07:30:31;;;;;;;;;;;20.10;57.20;;;;;;4950487;28;82916;-44
2023/08/10 07:32:57;;;;;;;;;;;20.10;57.20;;;;;;4954630;28;83072;-44
2023/08/10 07:35:23;;;;;;;;;;;20.10;57.30;;;;;;4944715;28;82233;-44
2023/08/10 07:37:49;;;;;;;;;;;20.10;57.30;;;;;;4952480;28;82340;-43
2023/08/10 07:40:14;;;;;;;;;;;20.10;57.60;;;;;;4957210;28;82097;-42
2023/08/10 07:42:40;;;;;;;;;;;20.10;57.60;;;;;;4949420;28;82158;-44
2023/08/10 07:45:09;;;;;;;;;;;20.10;57.40;;;;;;4950180;28;82346;-41
2023/08/10 07:47:36;;;;;;;;;;;20.10;57.40;;;;;;4953811;28;83014;-45
2023/08/10 07:50:02;;;;;;;;;;;20.10;57.40;;;;;;4956354;28;82345;-44
2023/08/10 07:52:28;;;;;;;;;;;20.10;57.40;;;;;;4946109;28;83079;-43
2023/08/10 07:54:54;;;;;;;;;;;20.00;57.60;;;;;;4951702;28;83076;-45
2023/08/10 07:57:19;;;;;;;;;;;20.00;57.40;;;;;;4956312;28;82548;-46
2023/08/10 07:59:45;;;;;;;;;;;20.10;57.40;;;;;;4952699;28;83190;-47
2023/08/10 08:02:10;;;;;;;;;;;20.10;57.40;;;;;;4949149;28;82062;-43
2023/08/10 08:04:36;;;;;;;;;;;20.00;57.40;;;;;;4949547;28;82573;-45
2023/08/10 08:07:01;;;;;;;;;;;20.00;57.30;;;;;;4954120;28;82873;-45
2023/08/10 08:09:27;;;;;;;;;;;20.00;57.30;;;;;;4956269;28;82074;-41
2023/08/10 08:11:52;;;;;;;;;;;20.00;57.50;;;;;;4942213;28;81571;-46
2023/08/10 08:14:18;;;;;;;;;;;20.00;57.30;;;;;;4946385;28;82977;-43
2023/08/10 08:16:43;;;;;;;;;;;20.10;57.40;;;;;;4955605;28;82643;-41
2023/08/10 08:19:09;;;;;;;;;;;20.00;57.30;;;;;;4950063;28;85370;-42
2023/08/10 08:21:35;;;;;;;;;;;20.00;57.30;;;;;;4953194;28;82417;-44
2023/08/10 08:24:01;;;;;;;;;;;20.10;57.40;;;;;;4955942;28;81953;-42
2023/08/10 08:26:27;;;;;;;;;;;20.10;57.30;;;;;;4955847;28;82867;-43
2023/08/10 08:28:53;;;;;;;;;;;20.00;57.60;;;;;;4949497;28;82261;-44
2023/08/10 08:31:18;;;;;;;;;;;20.00;57.40;;;;;;4953333;28;82018;-44
2023/08/10 08:33:44;;;;;;;;;;;20.00;57.40;;;;;;4950771;28;82005;-43
2023/08/10 08:36:09;;;;;;;;;;;20.10;57.40;;;;;;4956593;28;83218;-44
2023/08/10 08:38:37;;;;;;;;;;;20.00;57.50;;;;;;4954751;28;83266;-44
2023/08/10 08:41:04;;;;;;;;;;;20.00;57.50;;;;;;4949069;28;82359;-41
2023/08/10 08:43:29;;;;;;;;;;;20.10;57.60;;;;;;4952925;28;83599;-42
2023/08/10 08:45:57;;;;;;;;;;;20.10;57.60;;;;;;4958831;28;82131;-45
2023/08/10 08:48:22;;;;;;;;;;;20.00;57.40;;;;;;4945596;28;83903;-45
2023/08/10 08:50:49;;;;;;;;;;;20.00;57.40;;;;;;4957419;28;82731;-43
2023/08/10 08:53:15;;;;;;;;;;;20.10;57.70;;;;;;4957371;28;82200;-43
2023/08/10 08:55:41;;;;;;;;;;;20.10;57.50;;;;;;4957291;28;82386;-41
2023/08/10 08:58:07;;;;;;;;;;;20.00;57.50;;;;;;4956856;28;83014;-45
2023/08/10 09:00:33;;;;;;;;;;;20.00;57.40;;;;;;4946896;28;81452;-45
2023/08/10 09:02:59;;;;;;;;;;;20.00;57.50;;;;;;4955624;28;83161;-42
2023/08/10 09:05:25;;;;;;;;;;;20.00;57.50;;;;;;4959633;28;82628;-44
2023/08/10 09:07:51;;;;;;;;;;;20.00;57.70;;;;;;4956928;28;83071;-43
2023/08/10 09:10:17;;;;;;;;;;;20.00;57.50;;;;;;4955234;28;83193;-43
2023/08/10 09:12:42;;;;;;;;;;;20.00;57.80;;;;;;4958084;28;82907;-44
2023/08/10 09:15:12;;;;;;;;;;;20.00;57.60;;;;;;4958062;28;82795;-44
2023/08/10 09:17:48;;;;;;;;;;;20.00;57.50;;;;;;4947696;28;83646;-44
2023/08/10 09:20:18;;;;;;;;;;;20.00;57.30;;;;;;4950671;28;82137;-45
2023/08/10 09:22:44;;;;;;;;;;;20.00;57.70;;;;;;4956043;28;81909;-45
2023/08/10 09:25:09;;;;;;;;;;;20.00;57.60;;;;;;4959011;28;82445;-44
2023/08/10 09:27:35;;;;;;;;;;;20.00;57.30;;;;;;4952895;28;82907;-42
2023/08/10 09:30:02;;;;;;;;;;;20.00;57.60;;;;;;4950404;28;82647;-42
2023/08/10 09:32:27;;;;;;;;;;;20.00;57.40;;;;;;4958363;28;83940;-41
2023/08/10 09:34:53;;;;;;;;;;;20.00;57.50;;;;;;4957074;28;82139;-42
2023/08/10 09:37:19;;;;;;;;;;;20.00;57.30;;;;;;4946007;28;83001;-44
2023/08/10 09:39:45;;;;;;;;;;;20.00;57.30;;;;;;4954073;28;82325;-45
2023/08/10 09:42:10;;;;;;;;;;;20.00;57.20;;;;;;4956851;28;82691;-42
2023/08/10 09:44:43;;;;;;;;;;;20.00;57.30;;;;;;4957537;28;84868;-41
2023/08/10 09:47:09;;;;;;;;;;;20.00;57.40;;;;;;4946644;28;82252;-41
2023/08/10 09:49:35;;;;;;;;;;;20.00;57.50;;;;;;4950682;28;82438;-41
2023/08/10 09:52:01;;;;;;;;;;;20.00;57.50;;;;;;4955343;28;84410;-44
2023/08/10 09:54:27;;;;;;;;;;;20.00;57.40;;;;;;4952022;28;82087;-43
2023/08/10 09:56:53;;;;;;;;;;;20.00;57.70;;;;;;4952509;28;83105;-44
2023/08/10 09:59:19;;;;;;;;;;;20.00;57.80;;;;;;4954418;28;82112;-43
2023/08/10 10:01:45;;;;;;;;;;;20.00;57.90;;;;;;4956096;28;82425;-44
2023/08/10 10:04:11;;;;;;;;;;;20.00;57.90;;;;;;4950193;28;84736;-43
2023/08/10 10:06:37;;;;;;;;;;;20.00;57.80;;;;;;4951547;28;84182;-42
2023/08/10 10:09:03;;;;;;;;;;;20.00;58.00;;;;;;4953187;28;83552;-44
2023/08/10 10:11:30;;;;;;;;;;;20.00;58.00;;;;;;4955471;28;82879;-43
2023/08/10 10:13:57;;;;;;;;;;;20.00;57.90;;;;;;4949646;28;81409;-42
2023/08/10 10:16:23;;;;;;;;;;;19.90;58.00;;;;;;4953464;28;82572;-42
2023/08/10 10:18:49;;;;;;;;;;;20.00;58.20;;;;;;4957571;28;82999;-43
2023/08/10 10:21:14;;;;;;;;;;;19.90;58.00;;;;;;4950875;28;82995;-45
2023/08/10 10:23:40;;;;;;;;;;;19.90;58.00;;;;;;4948068;28;82940;-41
2023/08/10 10:26:06;;;;;;;;;;;19.90;58.20;;;;;;4942815;28;83186;-44
2023/08/10 10:28:33;;;;;;;;;;;19.90;58.20;;;;;;4958476;28;82519;-42
2023/08/10 10:31:04;;;;;;;;;;;19.90;58.20;;;;;;4957030;28;82109;-45
2023/08/10 10:33:31;;;;;;;;;;;19.90;58.30;;;;;;4949149;28;82496;-43
2023/08/10 10:36:12;;;;;;;;;;;19.90;58.30;;;;;;4948214;28;82093;-41
2023/08/10 10:38:39;;;;;;;;;;;19.90;58.20;;;;;;4958110;28;81661;-41
2023/08/10 10:41:08;;;;;;;;;;;19.90;58.40;;;;;;4954232;28;82172;-42
2023/08/10 10:43:34;;;;;;;;;;;19.90;58.40;;;;;;4947341;28;82969;-44
2023/08/10 10:45:59;;;;;;;;;;;20.00;58.50;;;;;;4946719;28;84314;-43
2023/08/10 10:48:35;;;;;;;;;;;20.00;58.30;;;;;;4958411;28;84021;-41
2023/08/10 10:51:04;;;;;;;;;;;20.00;58.40;;;;;;4949026;28;83031;-43
2023/08/10 10:53:30;;;;;;;;;;;20.00;58.30;;;;;;4939384;28;82127;-42
2023/08/10 10:55:55;;;;;;;;;;;19.90;58.30;;;;;;4954594;28;82517;-42
2023/08/10 10:58:22;;;;;;;;;;;20.00;58.30;;;;;;4957079;28;82633;-43
2023/08/10 11:00:47;;;;;;;;;;;20.00;58.40;;;;;;4950526;28;82285;-44
2023/08/10 11:03:13;;;;;;;;;;;20.00;58.50;;;;;;4943481;28;82528;-42
2023/08/10 11:05:39;;;;;;;;;;;20.00;58.50;;;;;;4951169;28;82084;-46
2023/08/10 11:08:08;;;;;;;;;;;20.00;58.50;;;;;;4957373;28;82433;-45
2023/08/10 11:10:37;;;;;;;;;;;20.00;58.40;;;;;;4944462;28;84028;-45
2023/08/10 11:13:07;;;;;;;;;;;20.00;58.30;;;;;;4948229;28;83799;-42
2023/08/10 11:15:33;;;;;;;;;;;20.00;58.40;;;;;;4957679;28;81969;-44
2023/08/10 11:17:59;;;;;;;;;;;19.90;58.30;;;;;;4954077;28;83310;-41
2023/08/10 11:20:25;;;;;;;;;;;20.00;58.50;;;;;;4940494;28;82482;-46
2023/08/10 11:22:52;;;;;;;;;;;20.00;58.60;;;;;;4941968;28;83961;-42
2023/08/10 11:25:19;;;;;;;;;;;20.00;58.60;;;;;;4956697;28;82314;-45
2023/08/10 11:27:48;;;;;;;;;;;20.00;58.60;;;;;;4955566;28;82426;-42
2023/08/10 11:30:15;;;;;;;;;;;20.00;58.70;;;;;;4949577;28;84485;-46
2023/08/10 11:32:41;;;;;;;;;;;20.00;58.80;;;;;;4952039;28;82155;-47
2023/08/10 11:35:08;;;;;;;;;;;20.00;58.60;;;;;;4952554;28;84213;-45
2023/08/10 11:37:34;;;;;;;;;;;20.00;58.70;;;;;;4953262;28;83490;-43
2023/08/10 11:40:07;;;;;;;;;;;20.00;58.90;;;;;;4946338;28;82519;-43
2023/08/10 11:42:36;;;;;;;;;;;20.00;58.80;;;;;;4953093;28;84055;-44
2023/08/10 11:45:06;;;;;;;;;;;20.00;59.00;;;;;;4953676;28;82964;-45
2023/08/10 11:47:41;;;;;;;;;;;20.00;59.20;;;;;;4948594;28;83780;-47
2023/08/10 11:50:09;;;;;;;;;;;20.00;58.90;;;;;;4945236;28;82190;-44
2023/08/10 11:52:35;;;;;;;;;;;20.00;59.10;;;;;;4952140;28;81322;-44
2023/08/10 11:55:07;;;;;;;;;;;20.00;58.90;;;;;;4955593;28;82055;-44
2023/08/10 11:57:36;;;;;;;;;;;20.00;58.90;;;;;;4944038;28;82945;-45
2023/08/10 12:00:34;;;;;;;;;;;20.00;59.00;;;;;;4942218;28;84361;-44
2023/08/10 12:03:06;;;;;;;;;;;20.10;59.00;;;;;;4941874;28;83379;-46
2023/08/10 12:05:36;;;;;;;;;;;20.00;58.90;;;;;;4949981;28;82848;-44
2023/08/10 12:08:08;;;;;;;;;;;20.00;59.10;;;;;;4946818;28;82352;-43
2023/08/10 12:10:36;;;;;;;;;;;20.00;58.90;;;;;;4951350;28;81915;-45
2023/08/10 12:13:05;;;;;;;;;;;20.10;58.90;;;;;;4958354;28;82275;-46
2023/08/10 12:15:32;;;;;;;;;;;20.00;58.80;;;;;;4954466;28;82596;-42
2023/08/10 12:17:59;;;;;;;;;;;20.00;58.90;;;;;;4952618;28;82097;-45
2023/08/10 12:20:25;;;;;;;;;;;20.00;58.90;;;;;;4957147;28;82182;-44
2023/08/10 12:22:53;;;;;;;;;;;20.10;59.20;;;;;;4956665;28;82502;-44
2023/08/10 12:25:19;;;;;;;;;;;20.00;59.00;;;;;;4949087;28;83972;-45
2023/08/10 12:27:44;;;;;;;;;;;20.10;59.10;;;;;;4949491;28;82597;-44
2023/08/10 12:30:10;;;;;;;;;;;20.00;59.10;;;;;;4961824;28;82375;-44
2023/08/10 12:32:36;;;;;;;;;;;20.00;59.20;;;;;;4957488;28;82172;-45
2023/08/10 12:35:01;;;;;;;;;;;20.00;59.90;;;;;;4951135;28;82506;-43
2023/08/10 12:37:27;;;;;;;;;;;20.00;59.30;;;;;;4945419;28;83882;-45
2023/08/10 12:39:53;;;;;;;;;;;20.10;59.20;;;;;;4958559;28;82029;-41
2023/08/10 12:42:19;;;;;;;;;;;20.10;59.10;;;;;;4959312;28;82465;-43
2023/08/10 12:44:44;;;;;;;;;;;20.10;59.00;;;;;;4951552;28;83133;-43
2023/08/10 12:47:10;;;;;;;;;;;20.10;59.00;;;;;;4952592;28;83956;-43
2023/08/10 12:49:35;;;;;;;;;;;20.10;59.10;;;;;;4955009;28;83145;-43
2023/08/10 12:52:01;;;;;;;;;;;20.10;59.10;;;;;;4958677;28;82664;-45
2023/08/10 12:54:26;;;;;;;;;;;20.10;59.00;;;;;;4947945;28;83256;-44
2023/08/10 12:56:52;;;;;;;;;;;20.00;59.10;;;;;;4952182;28;83186;-42
2023/08/10 12:59:18;;;;;;;;;;;20.00;59.10;;;;;;4958251;28;82059;-44
2023/08/10 13:01:44;;;;;;;;;;;20.00;59.00;;;;;;4958998;28;84268;-42
2023/08/10 13:04:09;;;;;;;;;;;20.00;59.10;;;;;;4948480;28;83237;-43
2023/08/10 13:06:35;;;;;;;;;;;20.00;59.10;;;;;;4948478;28;81664;-45
2023/08/10 13:09:00;;;;;;;;;;;20.00;59.20;;;;;;4958721;28;82191;-41
2023/08/10 13:11:26;;;;;;;;;;;20.00;59.20;;;;;;4959459;28;83176;-41
2023/08/10 13:13:51;;;;;;;;;;;20.10;59.30;;;;;;4949038;28;82999;-43
2023/08/10 13:16:17;;;;;;;;;;;20.00;59.30;;;;;;4953331;28;82727;-41
2023/08/10 13:18:42;;;;;;;;;;;20.00;59.30;;;;;;4957063;28;82073;-45
2023/08/10 13:21:08;;;;;;;;;;;20.00;59.30;;;;;;4955601;28;82382;-43
2023/08/10 13:23:33;;;;;;;;;;;20.10;59.40;;;;;;4956497;28;83306;-46
2023/08/10 13:25:59;;;;;;;;;;;20.00;59.50;;;;;;4951633;28;81958;-43
2023/08/10 13:28:24;;;;;;;;;;;20.00;59.40;;;;;;4956874;28;82047;-42
2023/08/10 13:30:50;;;;;;;;;;;20.10;59.70;;;;;;4955280;28;82549;-41
2023/08/10 13:33:16;;;;;;;;;;;20.00;59.40;;;;;;4948260;28;82390;-45
2023/08/10 13:35:41;;;;;;;;;;;20.00;59.60;;;;;;4946644;28;83050;-41
2023/08/10 13:38:07;;;;;;;;;;;20.00;59.70;;;;;;4954861;28;82936;-43
2023/08/10 13:40:32;;;;;;;;;;;20.00;59.60;;;;;;4952007;28;83408;-42
2023/08/10 13:42:58;;;;;;;;;;;20.00;59.60;;;;;;4951021;28;83166;-41
2023/08/10 13:45:24;;;;;;;;;;;20.00;59.50;;;;;;4954986;28;82032;-45
2023/08/10 13:47:49;;;;;;;;;;;20.00;59.60;;;;;;4955964;28;83908;-42
2023/08/10 13:50:15;;;;;;;;;;;20.00;59.70;;;;;;4944382;28;83214;-44
2023/08/10 13:52:40;;;;;;;;;;;20.00;59.60;;;;;;4951891;28;82738;-44
2023/08/10 13:55:06;;;;;;;;;;;20.00;59.60;;;;;;4957574;28;82400;-43
2023/08/10 13:57:32;;;;;;;;;;;20.00;60.50;;;;;;4952372;28;82131;-41
2023/08/10 13:59:58;;;;;;;;;;;20.10;60.80;;;;;;4950440;28;82563;-47
2023/08/10 14:02:24;;;;;;;;;;;20.10;61.30;;;;;;4946508;28;84031;-43
2023/08/10 14:04:50;;;;;;;;;;;20.10;60.80;;;;;;4955666;28;82144;-42
2023/08/10 14:07:15;;;;;;;;;;;20.10;61.60;;;;;;4953181;28;82646;-44
2023/08/10 14:09:42;;;;;;;;;;;20.00;62.60;;;;;;4945525;28;83267;-42
2023/08/10 14:12:07;;;;;;;;;;;20.10;62.70;;;;;;4950313;28;82153;-42